Time;durP1;ratioP1;P1;durP2;ratioP2;P2;SDS_P1;SDS_P2;PMS_P1;PMS_P2;Temp;Humidity;BMP_temperature;BMP_pressure;BME280_temperature;BME280_humidity;BME280_pressure;Samples;Min_cycle;Max_cycle;Signal;HPM_P1;HPM_P2
2022/11/25 00:01:34;;;;;;;17.58;3.83;;;11.20;99.90;;;;;;5090401;28;20054;-78
2022/11/25 00:04:00;;;;;;;17.10;2.97;;;11.20;99.90;;;;;;5090466;28;20519;-78
2022/11/25 00:06:29;;;;;;;10.27;2.67;;;11.20;99.90;;;;;;5088745;28;20118;-78
2022/11/25 00:08:57;;;;;;;14.48;2.80;;;11.20;99.90;;;;;;5090449;28;20047;-78
2022/11/25 00:11:25;;;;;;;15.98;2.70;;;11.20;99.90;;;;;;5090746;28;20057;-78
2022/11/25 00:13:52;;;;;;;13.85;2.88;;;11.20;99.90;;;;;;5088584;28;20044;-78
2022/11/25 00:16:21;;;;;;;15.98;3.13;;;11.20;99.90;;;;;;5090093;28;20055;-78
2022/11/25 00:18:50;;;;;;;14.70;2.70;;;11.20;99.90;;;;;;5081964;28;20047;-78
2022/11/25 00:21:19;;;;;;;16.13;3.33;;;11.10;99.90;;;;;;5071205;28;20056;-78
2022/11/25 00:23:50;;;;;;;14.55;3.55;;;11.20;99.90;;;;;;5099965;22;20047;-77
2022/11/25 00:26:18;;;;;;;15.73;3.70;;;11.20;99.90;;;;;;5097690;28;20068;-77
2022/11/25 00:28:46;;;;;;;9.85;2.83;;;11.10;99.90;;;;;;5098765;28;20040;-77
2022/11/25 00:31:15;;;;;;;14.65;3.22;;;11.10;99.90;;;;;;5090781;28;20048;-77
2022/11/25 00:33:42;;;;;;;17.92;3.67;;;11.20;99.90;;;;;;5099700;28;20067;-77
2022/11/25 00:36:15;;;;;;;16.60;3.20;;;11.30;99.90;;;;;;5090289;28;20098;-77
2022/11/25 00:38:42;;;;;;;11.35;3.35;;;11.10;99.90;;;;;;5083874;28;20132;-77
2022/11/25 00:46:38;;;;;;;13.57;3.10;;;11.20;99.90;;;;;;5089670;28;20089;-77
2022/11/25 00:49:07;;;;;;;18.35;2.65;;;11.10;99.90;;;;;;5088042;28;20094;-77
2022/11/25 00:51:35;;;;;;;16.27;2.67;;;11.20;99.90;;;;;;5058759;28;20040;-77
2022/11/25 00:54:02;;;;;;;12.25;2.75;;;11.20;99.90;;;;;;5060467;28;20512;-77
2022/11/25 00:56:29;;;;;;;17.05;3.13;;;11.10;99.90;;;;;;5085835;28;20041;-77
2022/11/25 00:58:56;;;;;;;12.55;2.78;;;11.20;99.90;;;;;;5053653;28;20511;-77
2022/11/25 01:01:23;;;;;;;14.68;2.95;;;11.20;99.90;;;;;;5069489;28;20044;-77
2022/11/25 01:03:51;;;;;;;15.10;2.42;;;11.20;99.90;;;;;;5077319;28;20135;-77
2022/11/25 01:06:18;;;;;;;13.80;2.65;;;11.20;99.90;;;;;;5089510;28;20043;-77
2022/11/25 01:08:46;;;;;;;17.85;2.97;;;11.20;99.90;;;;;;5073504;28;20054;-77
2022/11/25 01:11:15;;;;;;;20.63;3.50;;;11.20;99.90;;;;;;5091448;28;20154;-77
2022/11/25 01:13:42;;;;;;;12.32;2.67;;;11.10;99.90;;;;;;5082295;28;20043;-77
2022/11/25 01:16:11;;;;;;;11.20;2.60;;;11.10;99.90;;;;;;5077155;28;20052;-77
2022/11/25 01:18:38;;;;;;;11.45;2.78;;;11.20;99.90;;;;;;5068698;28;20055;-77
2022/11/25 01:21:07;;;;;;;17.95;3.33;;;11.20;99.90;;;;;;5090454;28;20054;-77
2022/11/25 01:23:34;;;;;;;15.88;3.15;;;11.20;99.90;;;;;;5097332;28;20048;-77
2022/11/25 01:26:03;;;;;;;17.90;3.10;;;11.10;99.90;;;;;;5091178;28;20048;-77
2022/11/25 01:28:31;;;;;;;13.50;2.97;;;11.10;99.90;;;;;;5089315;28;20054;-77
2022/11/25 01:31:01;;;;;;;10.48;2.63;;;11.10;99.90;;;;;;5107864;28;20043;-77
2022/11/25 01:33:31;;;;;;;17.08;3.38;;;11.10;99.90;;;;;;5101577;28;20047;-77
2022/11/25 01:36:01;;;;;;;15.20;2.80;;;11.10;99.90;;;;;;5067781;28;20052;-77
2022/11/25 01:38:28;;;;;;;18.60;3.25;;;11.20;99.90;;;;;;5075058;28;20055;-77
2022/11/25 01:40:55;;;;;;;12.32;2.47;;;11.20;99.90;;;;;;5068776;28;20134;-77
2022/11/25 01:43:23;;;;;;;12.20;2.60;;;11.20;99.90;;;;;;5084368;28;20033;-77
2022/11/25 01:45:50;;;;;;;17.80;4.10;;;11.20;99.90;;;;;;5085014;28;20669;-77
2022/11/25 01:48:22;;;;;;;14.23;2.92;;;11.20;99.90;;;;;;5089183;28;20043;-77
2022/11/25 01:50:48;;;;;;;;;;;11.10;99.90;;;;;;5076604;28;20040;-77
2022/11/25 01:53:16;;;;;;;16.48;3.53;;;11.20;99.90;;;;;;5079876;28;19924;-77
2022/11/25 01:55:48;;;;;;;12.32;2.92;;;11.20;99.90;;;;;;5069248;28;20079;-77
2022/11/25 01:58:17;;;;;;;10.75;2.72;;;11.20;99.90;;;;;;5070282;28;20048;-77
2022/11/25 02:00:50;;;;;;;10.10;2.60;;;11.20;99.90;;;;;;5051823;28;20040;-77
2022/11/25 02:03:19;;;;;;;12.73;3.10;;;11.20;99.90;;;;;;5069551;28;20044;-77
2022/11/25 02:05:49;;;;;;;12.35;2.80;;;11.20;99.90;;;;;;5070270;28;20048;-77
2022/11/25 02:08:17;;;;;;;15.73;3.23;;;11.20;99.90;;;;;;5090134;28;20070;-77
2022/11/25 02:10:44;;;;;;;14.77;3.35;;;11.20;99.90;;;;;;5084805;28;20040;-77
2022/11/25 02:13:11;;;;;;;15.23;3.25;;;11.20;99.90;;;;;;5088275;28;20127;-77
2022/11/25 02:15:38;;;;;;;10.27;2.55;;;11.20;99.90;;;;;;5088665;28;20050;-76
2022/11/25 02:18:07;;;;;;;20.40;3.75;;;11.20;99.90;;;;;;5071488;28;20420;-77
2022/11/25 02:20:35;;;;;;;19.00;3.83;;;11.30;99.90;;;;;;5066676;28;20042;-77
2022/11/25 02:23:08;;;;;;;13.52;2.60;;;11.20;99.90;;;;;;5104454;28;20044;-77
2022/11/25 02:25:37;;;;;;;12.18;3.30;;;11.20;99.90;;;;;;5060143;28;20317;-77
2022/11/25 02:28:11;;;;;;;15.88;2.88;;;11.20;99.90;;;;;;5070481;28;20052;-77
2022/11/25 02:30:38;;;;;;;14.15;3.05;;;11.30;99.90;;;;;;5084787;28;20040;-77
2022/11/25 02:33:06;;;;;;;15.15;3.60;;;11.30;99.90;;;;;;5068869;28;20048;-77
2022/11/25 02:35:34;;;;;;;15.90;3.85;;;11.30;99.90;;;;;;5059716;28;20090;-77
2022/11/25 02:38:07;;;;;;;11.82;2.95;;;11.30;99.90;;;;;;5085580;28;20048;-77
2022/11/25 02:40:40;;;;;;;15.82;3.55;;;11.30;99.90;;;;;;5067316;28;20044;-77
2022/11/25 02:43:09;;;;;;;24.60;3.38;;;11.30;99.90;;;;;;5064101;28;20476;-77
2022/11/25 02:45:52;;;;;;;14.98;2.92;;;11.30;99.90;;;;;;5064016;28;20125;-77
2022/11/25 02:48:20;;;;;;;17.15;2.85;;;11.40;99.90;;;;;;5066654;28;20053;-77
2022/11/25 02:50:48;;;;;;;12.95;3.00;;;11.40;99.90;;;;;;5071601;28;20399;-77
2022/11/25 02:53:16;;;;;;;14.05;2.88;;;11.40;99.90;;;;;;5072850;28;20044;-77
2022/11/25 02:55:44;;;;;;;21.00;3.40;;;11.40;99.90;;;;;;5088757;28;20036;-77
2022/11/25 02:58:11;;;;;;;15.32;2.58;;;11.40;99.90;;;;;;5055650;28;20435;-77
2022/11/25 03:00:40;;;;;;;13.73;3.55;;;11.40;99.90;;;;;;5056727;28;20036;-77
2022/11/25 03:03:09;;;;;;;16.40;3.22;;;11.40;99.90;;;;;;5065754;28;20048;-77
2022/11/25 03:05:36;;;;;;;15.13;3.30;;;11.40;99.90;;;;;;5090014;28;20058;-77
2022/11/25 03:08:03;;;;;;;15.20;2.88;;;11.50;99.90;;;;;;5072675;28;20105;-77
2022/11/25 03:10:31;;;;;;;17.38;3.40;;;11.50;99.90;;;;;;5067451;28;20051;-77
2022/11/25 03:13:01;;;;;;;14.60;3.13;;;11.50;99.90;;;;;;5077554;28;20048;-77
2022/11/25 03:15:28;;;;;;;12.65;3.10;;;11.50;99.90;;;;;;5090235;28;20047;-77
2022/11/25 03:17:55;;;;;;;13.75;2.83;;;11.50;99.90;;;;;;5066332;28;20047;-77
2022/11/25 03:20:23;;;;;;;12.93;2.60;;;11.60;99.90;;;;;;5070279;28;20493;-77
2022/11/25 03:22:50;;;;;;;18.95;3.42;;;11.50;99.90;;;;;;5092661;28;20040;-77
2022/11/25 03:25:17;;;;;;;19.27;3.20;;;11.60;99.90;;;;;;5090234;28;20050;-77
2022/11/25 03:27:45;;;;;;;13.18;3.25;;;11.60;99.90;;;;;;5090992;28;20051;-77
2022/11/25 03:30:15;;;;;;;15.10;3.00;;;11.60;99.90;;;;;;5089323;28;20054;-77
2022/11/25 03:32:43;;;;;;;13.82;3.45;;;11.60;99.90;;;;;;5073065;28;20429;-77
2022/11/25 03:35:12;;;;;;;11.95;3.00;;;11.60;99.90;;;;;;5070123;28;20056;-77
2022/11/25 03:37:39;;;;;;;13.60;3.33;;;11.60;99.90;;;;;;5069949;28;20049;-77
2022/11/25 03:40:09;;;;;;;17.67;3.45;;;11.60;99.90;;;;;;5070115;28;20051;-77
2022/11/25 03:42:36;;;;;;;13.88;3.50;;;11.60;99.90;;;;;;5068765;28;20063;-77
2022/11/25 03:45:06;;;;;;;14.13;2.92;;;11.60;99.90;;;;;;5070333;28;20512;-77
2022/11/25 03:47:34;;;;;;;14.82;3.50;;;11.60;99.90;;;;;;5090863;28;20043;-77
2022/11/25 03:50:02;;;;;;;13.20;3.25;;;11.60;99.90;;;;;;5073119;28;20040;-77
2022/11/25 03:52:29;;;;;;;10.70;3.50;;;11.60;99.90;;;;;;5068760;28;20591;-77
2022/11/25 03:54:56;;;;;;;14.65;3.13;;;11.60;99.90;;;;;;5074790;28;20040;-77
2022/11/25 03:57:27;;;;;;;17.13;3.33;;;11.60;99.90;;;;;;5078790;28;20044;-77
2022/11/25 03:59:54;;;;;;;13.63;3.38;;;11.60;99.90;;;;;;5061159;28;20040;-77
2022/11/25 04:02:21;;;;;;;12.30;2.80;;;11.60;99.90;;;;;;5074043;28;20040;-77
2022/11/25 04:04:51;;;;;;;11.07;2.80;;;11.60;99.90;;;;;;5064105;28;20640;-77
2022/11/25 04:07:18;;;;;;;11.95;3.25;;;11.70;99.90;;;;;;5072339;28;20044;-77
2022/11/25 04:09:45;;;;;;;12.40;2.67;;;11.60;99.90;;;;;;5069251;28;20040;-77
2022/11/25 04:15:06;;;;;;;17.70;3.42;;;11.60;99.90;;;;;;5067838;28;20050;-77
2022/11/25 04:17:34;;;;;;;13.75;3.10;;;11.60;99.90;;;;;;5065421;28;20040;-77
2022/11/25 04:20:03;;;;;;;11.18;2.95;;;11.60;99.90;;;;;;5069146;28;20504;-77
2022/11/25 04:22:30;;;;;;;12.07;3.17;;;11.60;99.90;;;;;;5068323;28;20924;-77
2022/11/25 04:24:57;;;;;;;14.70;3.15;;;11.60;99.90;;;;;;5068166;28;20141;-77
2022/11/25 04:27:26;;;;;;;11.10;2.53;;;11.60;99.90;;;;;;5068955;28;20497;-77
2022/11/25 04:29:54;;;;;;;15.05;3.22;;;11.60;99.90;;;;;;5054822;28;20093;-77
2022/11/25 04:32:22;;;;;;;11.50;2.80;;;11.60;99.90;;;;;;5068340;28;20044;-77
2022/11/25 04:34:49;;;;;;;15.23;2.78;;;11.60;99.90;;;;;;5064106;28;20041;-77
2022/11/25 04:37:19;;;;;;;11.57;2.78;;;11.60;99.90;;;;;;5052980;28;20068;-77
2022/11/25 04:39:46;;;;;;;14.07;3.35;;;11.60;99.90;;;;;;5058001;28;20123;-77
2022/11/25 04:42:33;;;;;;;11.25;3.05;;;11.60;99.90;;;;;;5100223;28;20044;-77
2022/11/25 04:45:06;;;;;;;12.55;2.80;;;11.60;99.90;;;;;;5065685;28;20302;-77
2022/11/25 04:47:33;;;;;;;14.60;3.33;;;11.60;99.90;;;;;;5056727;28;20072;-77
2022/11/25 04:50:00;;;;;;;11.93;3.20;;;11.60;99.90;;;;;;5068375;28;20044;-77
2022/11/25 04:52:29;;;;;;;16.33;2.97;;;11.60;99.90;;;;;;5067632;28;20075;-77
2022/11/25 04:54:55;;;;;;;16.98;3.13;;;11.60;99.90;;;;;;5072353;28;20056;-77
2022/11/25 04:57:23;;;;;;;13.63;2.75;;;11.60;99.90;;;;;;5071965;28;20053;-77
2022/11/25 04:59:50;;;;;;;14.77;3.55;;;11.70;99.90;;;;;;5072126;28;20040;-77
2022/11/25 05:02:20;;;;;;;18.38;3.70;;;11.60;99.90;;;;;;5081679;28;20519;-77
2022/11/25 05:04:56;;;;;;;15.52;3.58;;;11.60;99.90;;;;;;5062965;28;20044;-77
2022/11/25 05:07:25;;;;;;;11.57;3.22;;;11.60;99.90;;;;;;5072623;28;20046;-77
2022/11/25 05:09:56;;;;;;;12.20;3.25;;;11.60;99.90;;;;;;5070904;28;20040;-77
2022/11/25 05:12:36;;;;;;;15.07;3.65;;;11.60;99.90;;;;;;5060141;28;20226;-77
2022/11/25 05:15:08;;;;;;;12.10;3.67;;;11.60;99.90;;;;;;5071054;28;20050;-77
2022/11/25 05:17:38;;;;;;;16.10;4.28;;;11.60;99.90;;;;;;5074535;28;20044;-76
2022/11/25 05:20:06;;;;;;;11.68;3.47;;;11.60;99.90;;;;;;5068025;28;20044;-76
2022/11/25 05:22:35;;;;;;;16.40;3.53;;;11.60;99.90;;;;;;5071927;28;20120;-77
2022/11/25 05:25:05;;;;;;;19.42;4.18;;;11.60;99.90;;;;;;5067339;28;20424;-77
2022/11/25 05:27:36;;;;;;;19.27;4.25;;;11.60;99.90;;;;;;5061056;28;20059;-77
2022/11/25 05:30:08;;;;;;;16.08;3.33;;;11.60;99.90;;;;;;5067885;28;20074;-77
2022/11/25 05:32:35;;;;;;;14.98;4.22;;;11.50;99.90;;;;;;5083625;28;20538;-77
2022/11/25 05:35:08;;;;;;;13.57;3.30;;;11.60;99.90;;;;;;5067350;28;20511;-78
2022/11/25 05:37:35;;;;;;;17.08;4.18;;;11.60;99.90;;;;;;5058176;28;20047;-77
2022/11/25 05:40:08;;;;;;;18.40;4.07;;;11.60;99.90;;;;;;5079849;28;20051;-77
2022/11/25 05:42:53;;;;;;;17.10;4.68;;;11.60;99.90;;;;;;5081754;28;20146;-79
2022/11/25 05:45:20;;;;;;;14.18;4.25;;;11.60;99.90;;;;;;5060337;28;20553;-78
2022/11/25 05:47:48;;;;;;;14.35;4.18;;;11.50;99.90;;;;;;5086789;28;20043;-78
2022/11/25 05:50:19;;;;;;;;;;;11.60;99.90;;;;;;5068860;28;20036;-78
2022/11/25 05:53:03;;;;;;;18.90;4.97;;;11.50;99.90;;;;;;5081020;28;19928;-78
2022/11/25 05:55:31;;;;;;;17.45;4.20;;;11.50;99.90;;;;;;5069361;28;20044;-78
2022/11/25 05:58:00;;;;;;;19.73;5.40;;;11.50;99.90;;;;;;5068460;28;20454;-76
2022/11/25 06:00:28;;;;;;;19.90;5.78;;;11.50;99.90;;;;;;5065796;28;20048;-77
2022/11/25 06:02:59;;;;;;;12.80;4.57;;;11.50;99.90;;;;;;5079027;28;20050;-77
2022/11/25 06:05:26;;;;;;;15.68;4.32;;;11.50;99.90;;;;;;5066589;28;20044;-77
2022/11/25 06:07:53;;;;;;;17.20;4.47;;;11.50;99.90;;;;;;5090052;28;20044;-76
2022/11/25 06:10:22;;;;;;;15.60;4.97;;;11.50;99.90;;;;;;5075595;28;20097;-77
2022/11/25 06:12:52;;;;;;;13.35;3.80;;;11.50;99.90;;;;;;5068731;28;20040;-77
2022/11/25 06:15:19;;;;;;;13.80;4.00;;;11.50;99.90;;;;;;5069725;28;20060;-77
2022/11/25 06:17:47;;;;;;;20.00;4.13;;;11.50;99.90;;;;;;5068235;28;20496;-76
2022/11/25 06:20:19;;;;;;;14.70;4.00;;;11.50;99.90;;;;;;5076643;28;20040;-76
2022/11/25 06:22:46;;;;;;;16.00;4.47;;;11.50;99.90;;;;;;5068228;28;20484;-76
2022/11/25 06:25:13;;;;;;;18.75;4.20;;;11.50;99.90;;;;;;5075286;28;20104;-76
2022/11/25 06:27:42;;;;;;;22.77;4.90;;;11.50;99.90;;;;;;5066308;28;20044;-75
2022/11/25 06:30:12;;;;;;;16.25;5.07;;;11.50;99.90;;;;;;5065475;28;20244;-76
2022/11/25 06:32:42;;;;;;;11.25;4.45;;;11.50;99.90;;;;;;5072976;28;20043;-77
2022/11/25 06:35:19;;;;;;;21.42;4.60;;;11.50;99.90;;;;;;5072941;28;20052;-77
2022/11/25 06:37:53;;;;;;;16.85;4.55;;;11.50;99.90;;;;;;5092731;28;20051;-77
2022/11/25 06:40:20;;;;;;;16.70;4.68;;;11.50;99.90;;;;;;5122409;22;20051;-83
2022/11/25 06:42:47;;;;;;;13.13;4.10;;;11.50;99.90;;;;;;5115633;27;20488;-86
2022/11/25 06:45:16;;;;;;;15.50;4.20;;;11.40;99.90;;;;;;5110743;28;20046;-88
2022/11/25 06:47:43;;;;;;;12.45;4.05;;;11.50;99.90;;;;;;5112860;28;20134;-87
2022/11/25 06:50:10;;;;;;;14.77;3.88;;;11.50;99.90;;;;;;5100103;28;20139;-87
2022/11/25 06:52:37;;;;;;;12.88;3.92;;;11.50;99.90;;;;;;5097558;28;20035;-88
2022/11/25 06:55:05;;;;;;;13.77;3.97;;;11.50;99.90;;;;;;5097918;28;20050;-87
2022/11/25 06:57:32;;;;;;;18.83;4.80;;;11.50;99.90;;;;;;5105487;28;20043;-88
2022/11/25 06:59:58;;;;;;;18.15;4.95;;;11.60;99.90;;;;;;5104942;27;20052;-87
2022/11/25 07:02:27;;;;;;;18.92;4.35;;;11.40;99.90;;;;;;5086743;28;20043;-87
2022/11/25 07:04:54;;;;;;;18.75;4.72;;;11.40;99.90;;;;;;5094222;28;20040;-88
2022/11/25 07:07:21;;;;;;;28.20;9.25;;;11.50;99.90;;;;;;5088497;28;20044;-87
2022/11/25 07:09:47;;;;;;;20.73;7.35;;;11.40;99.90;;;;;;5082246;28;20400;-87
2022/11/25 07:12:14;;;;;;;14.10;4.80;;;11.50;99.90;;;;;;5104112;28;20637;-87
2022/11/25 07:14:41;;;;;;;15.05;4.20;;;11.40;99.90;;;;;;5100316;28;20059;-86
2022/11/25 07:17:08;;;;;;;15.93;4.25;;;11.50;99.90;;;;;;5089410;28;20048;-86
2022/11/25 07:19:37;;;;;;;16.45;4.90;;;11.50;99.90;;;;;;5099036;28;20035;-86
2022/11/25 07:22:04;;;;;;;17.63;4.85;;;11.50;99.90;;;;;;5099103;28;20162;-87
2022/11/25 07:24:33;;;;;;;13.40;5.03;;;11.50;99.90;;;;;;5112543;28;20047;-84
2022/11/25 07:27:00;;;;;;;16.30;5.45;;;11.50;99.90;;;;;;5086940;28;20051;-85
2022/11/25 07:29:30;;;;;;;19.50;6.40;;;11.50;99.90;;;;;;5094931;28;20059;-85
2022/11/25 07:32:03;;;;;;;21.45;6.32;;;11.50;99.90;;;;;;5090012;28;20051;-86
2022/11/25 07:34:30;;;;;;;16.27;4.82;;;11.50;99.90;;;;;;5098458;28;20487;-87
2022/11/25 07:36:59;;;;;;;13.32;4.35;;;11.50;99.90;;;;;;5079475;28;20048;-86
2022/11/25 07:39:28;;;;;;;16.70;4.78;;;11.50;99.90;;;;;;5106553;28;20072;-86
2022/11/25 07:41:55;;;;;;;14.00;5.03;;;11.50;99.90;;;;;;5099069;28;20046;-86
2022/11/25 07:44:22;;;;;;;14.70;5.00;;;11.40;99.90;;;;;;5095155;28;20042;-86
2022/11/25 07:46:52;;;;;;;15.73;5.03;;;11.40;99.90;;;;;;5100874;28;20056;-86
2022/11/25 07:49:23;;;;;;;17.90;4.80;;;11.50;99.90;;;;;;5086583;28;20125;-86
2022/11/25 07:51:52;;;;;;;;;;;11.50;99.90;;;;;;5111728;28;20036;-85
2022/11/25 07:54:21;;;;;;;17.98;5.38;;;11.50;99.90;;;;;;5094261;28;20050;-86
2022/11/25 07:56:49;;;;;;;12.20;4.95;;;11.40;99.90;;;;;;5096391;28;20499;-86
2022/11/25 07:59:18;;;;;;;14.95;4.40;;;11.50;99.90;;;;;;5089059;28;20048;-86
2022/11/25 08:01:45;;;;;;;14.00;5.28;;;11.40;99.90;;;;;;5092585;28;20111;-85
2022/11/25 08:04:13;;;;;;;16.27;4.63;;;11.50;99.90;;;;;;5087632;28;20048;-86
2022/11/25 08:06:42;;;;;;;14.52;4.45;;;11.40;99.90;;;;;;5090052;28;20040;-85
2022/11/25 08:09:11;;;;;;;14.50;4.22;;;11.40;99.90;;;;;;5096969;28;20052;-87
2022/11/25 08:11:39;;;;;;;15.80;4.32;;;11.40;99.90;;;;;;5089476;28;20036;-85
2022/11/25 08:14:07;;;;;;;12.93;4.40;;;11.40;99.90;;;;;;5091268;28;20119;-86
2022/11/25 08:16:34;;;;;;;13.50;4.43;;;11.40;99.90;;;;;;5084673;28;20126;-86
2022/11/25 08:19:03;;;;;;;16.40;4.13;;;11.40;99.90;;;;;;5088024;28;20454;-84
2022/11/25 08:21:30;;;;;;;14.20;4.05;;;11.40;99.90;;;;;;5078681;28;20046;-84
2022/11/25 08:23:57;;;;;;;16.85;4.82;;;11.40;99.90;;;;;;5110955;28;20047;-85
2022/11/25 08:26:26;;;;;;;15.07;5.43;;;11.40;99.90;;;;;;5084144;28;20047;-85
2022/11/25 08:28:58;;;;;;;12.55;4.20;;;11.40;99.90;;;;;;5087747;28;20097;-86
2022/11/25 08:31:26;;;;;;;15.35;4.28;;;11.50;99.90;;;;;;5100027;28;20038;-86
2022/11/25 08:33:54;;;;;;;11.38;3.88;;;11.40;99.90;;;;;;5084937;28;20063;-84
2022/11/25 08:36:22;;;;;;;17.05;4.53;;;11.40;99.90;;;;;;5082028;28;20079;-86
2022/11/25 08:38:51;;;;;;;13.75;4.45;;;11.50;99.90;;;;;;5076430;28;20403;-91
2022/11/25 08:41:20;;;;;;;14.77;4.13;;;11.50;99.90;;;;;;5091697;28;21394;-92
2022/11/25 08:43:48;;;;;;;12.85;3.70;;;11.50;99.90;;;;;;5075832;28;20071;-90
2022/11/25 08:46:18;;;;;;;14.20;3.75;;;11.50;99.90;;;;;;5088691;28;20040;-90
2022/11/25 08:48:45;;;;;;;13.27;3.60;;;11.40;99.90;;;;;;5082725;28;20123;-90
2022/11/25 08:51:14;;;;;;;14.77;4.70;;;11.50;99.90;;;;;;5088313;28;20105;-91
2022/11/25 08:53:42;;;;;;;17.05;6.10;;;11.50;99.90;;;;;;5105896;27;20048;-88
2022/11/25 08:56:09;;;;;;;16.27;5.65;;;11.50;99.90;;;;;;5076802;28;20052;-90
2022/11/25 08:58:36;;;;;;;20.25;6.50;;;11.50;99.90;;;;;;5075115;28;20041;-91
2022/11/25 09:01:03;;;;;;;15.52;5.57;;;11.50;99.90;;;;;;5071055;28;20507;-90
2022/11/25 09:03:33;;;;;;;17.50;4.63;;;11.50;99.90;;;;;;5078689;28;20127;-88
2022/11/25 09:06:01;;;;;;;15.07;4.72;;;11.50;99.90;;;;;;5089852;28;20478;-89
2022/11/25 09:08:30;;;;;;;13.63;3.85;;;11.50;99.90;;;;;;5085527;28;20055;-88
2022/11/25 09:10:57;;;;;;;14.70;4.32;;;11.50;99.90;;;;;;5087424;28;20052;-89
2022/11/25 09:13:24;;;;;;;17.80;4.35;;;11.50;99.90;;;;;;5104977;28;20044;-88
2022/11/25 09:15:52;;;;;;;14.23;5.13;;;11.50;99.90;;;;;;5098560;28;20044;-89
2022/11/25 09:18:24;;;;;;;15.65;4.82;;;11.50;99.90;;;;;;5099909;28;20416;-90
2022/11/25 09:20:53;;;;;;;13.50;4.03;;;11.60;99.90;;;;;;5101790;28;20040;-90
2022/11/25 09:23:22;;;;;;;13.45;4.10;;;11.60;99.90;;;;;;5106219;28;20066;-90
2022/11/25 09:25:52;;;;;;;13.75;4.22;;;11.60;99.90;;;;;;5098357;28;20043;-89
2022/11/25 09:28:19;;;;;;;15.07;3.80;;;11.60;99.90;;;;;;5099434;28;20058;-87
2022/11/25 09:30:46;;;;;;;14.43;3.60;;;11.60;99.90;;;;;;5109320;28;20051;-81
2022/11/25 09:33:13;;;;;;;17.10;4.35;;;11.60;99.90;;;;;;5107489;28;20040;-89
2022/11/25 09:35:40;;;;;;;16.88;4.07;;;11.60;99.90;;;;;;5106839;28;20042;-88
2022/11/25 09:38:08;;;;;;;13.13;3.92;;;11.60;99.90;;;;;;5089454;28;20117;-87
2022/11/25 09:40:39;;;;;;;20.65;5.22;;;11.60;99.90;;;;;;5097251;28;20050;-86
2022/11/25 09:48:59;;;;;;;18.77;4.32;;;11.90;99.90;;;;;;5085684;28;20052;-84
2022/11/25 09:51:34;;;;;;;13.15;3.63;;;11.70;99.90;;;;;;5083401;28;20118;-86
2022/11/25 09:54:10;;;;;;;13.27;3.53;;;11.70;99.90;;;;;;5092977;28;20047;-88
2022/11/25 09:56:42;;;;;;;12.32;3.65;;;11.70;99.90;;;;;;5095447;28;20139;-88
2022/11/25 09:59:15;;;;;;;11.93;3.20;;;11.70;99.90;;;;;;5072881;28;20429;-88
2022/11/25 10:01:47;;;;;;;11.95;3.10;;;11.80;99.90;;;;;;5071628;28;20093;-86
2022/11/25 10:04:19;;;;;;;10.75;3.33;;;11.80;99.90;;;;;;5091756;28;20138;-85
2022/11/25 10:06:50;;;;;;;10.32;3.20;;;11.80;99.90;;;;;;5087346;28;20118;-86
2022/11/25 10:09:23;;;;;;;10.90;3.47;;;11.80;99.90;;;;;;5091541;28;20610;-86
2022/11/25 10:11:51;;;;;;;12.38;3.38;;;11.90;99.90;;;;;;5079763;28;20040;-85
2022/11/25 10:14:27;;;;;;;11.45;3.05;;;11.90;99.90;;;;;;5086706;28;20131;-86
2022/11/25 10:17:01;;;;;;;10.57;3.33;;;11.90;99.90;;;;;;5085406;28;20146;-85
2022/11/25 10:19:39;;;;;;;16.92;3.45;;;11.90;99.90;;;;;;5084576;28;20061;-86
2022/11/25 10:22:16;;;;;;;18.25;4.35;;;11.90;99.90;;;;;;5104330;28;20067;-86
2022/11/25 10:24:45;;;;;;;12.25;3.30;;;11.90;99.90;;;;;;5101938;28;20507;-86
2022/11/25 10:27:18;;;;;;;8.55;3.30;;;11.90;99.90;;;;;;5103214;28;20044;-86
2022/11/25 10:29:50;;;;;;;15.18;3.33;;;12.00;99.90;;;;;;5102884;28;20044;-86
2022/11/25 10:32:20;;;;;;;;;;;12.00;99.90;;;;;;5109297;28;20084;-85
2022/11/25 10:34:49;;;;;;;15.50;4.47;;;12.00;99.90;;;;;;5102068;28;20521;-86
2022/11/25 10:37:25;;;;;;;17.92;3.90;;;12.00;99.90;;;;;;5103075;28;20040;-85
2022/11/25 10:39:53;;;;;;;12.23;4.00;;;12.00;99.90;;;;;;5103252;28;20220;-86
2022/11/25 10:42:22;;;;;;;15.55;3.78;;;12.10;99.90;;;;;;5108879;28;20159;-86
2022/11/25 10:44:49;;;;;;;12.85;3.72;;;12.10;99.90;;;;;;5103047;28;20045;-85
2022/11/25 10:47:27;;;;;;;12.20;3.22;;;12.10;99.90;;;;;;5084396;28;20130;-86
2022/11/25 10:50:16;;;;;;;11.13;3.25;;;12.10;99.90;;;;;;5103312;28;20043;-86
2022/11/25 10:52:49;;;;;;;15.05;4.30;;;12.10;99.90;;;;;;5108531;28;20043;-85
2022/11/25 10:55:20;;;;;;;9.68;3.63;;;12.10;99.90;;;;;;5104291;28;20127;-85
2022/11/25 10:57:47;;;;;;;14.15;4.40;;;12.10;99.90;;;;;;5101784;28;20062;-85
2022/11/25 11:00:31;;;;;;;14.95;4.28;;;12.10;99.90;;;;;;5103065;28;20487;-86
2022/11/25 11:02:58;;;;;;;12.02;3.90;;;12.10;99.90;;;;;;5100822;28;20579;-86
2022/11/25 11:05:28;;;;;;;13.23;4.05;;;12.10;99.90;;;;;;5079382;28;20051;-86
2022/11/25 11:08:13;;;;;;;15.70;4.00;;;12.10;99.90;;;;;;5092588;28;20100;-86
2022/11/25 11:10:42;;;;;;;16.30;4.95;;;12.10;99.90;;;;;;5070967;28;20051;-87
2022/11/25 11:13:22;;;;;;;16.15;4.03;;;12.00;99.90;;;;;;5105497;28;20065;-85
2022/11/25 11:15:49;;;;;;;15.27;4.38;;;12.00;99.90;;;;;;5107173;28;20070;-86
2022/11/25 11:18:24;;;;;;;16.05;4.50;;;12.10;99.90;;;;;;5110052;28;20048;-85
2022/11/25 11:20:52;;;;;;;18.52;4.45;;;12.10;99.90;;;;;;5106267;28;20094;-86
2022/11/25 11:23:19;;;;;;;17.63;4.80;;;12.00;99.90;;;;;;5110938;28;20103;-85
2022/11/25 11:25:57;;;;;;;12.82;4.30;;;12.00;99.90;;;;;;5111540;28;20069;-86
2022/11/25 11:28:38;;;;;;;13.70;4.82;;;12.00;99.90;;;;;;5089507;28;20050;-86
2022/11/25 11:31:08;;;;;;;16.80;4.65;;;12.10;99.90;;;;;;5090657;28;20487;-85
2022/11/25 11:33:37;;;;;;;16.67;4.80;;;12.10;99.90;;;;;;5111585;28;20039;-86
2022/11/25 11:36:20;;;;;;;20.77;5.55;;;12.10;99.90;;;;;;5112073;28;20043;-86
2022/11/25 11:38:53;;;;;;;21.25;5.38;;;12.10;99.90;;;;;;5112060;28;20039;-86
2022/11/25 11:41:31;;;;;;;13.73;3.95;;;12.10;99.90;;;;;;5106481;27;20245;-86
2022/11/25 11:44:06;;;;;;;16.05;4.03;;;12.10;99.90;;;;;;5111949;28;20518;-85
2022/11/25 11:46:41;;;;;;;11.77;3.28;;;12.10;99.90;;;;;;5111825;28;20054;-85
2022/11/25 11:49:25;;;;;;;12.95;3.55;;;12.10;99.90;;;;;;5111612;28;20071;-85
2022/11/25 11:51:56;;;;;;;15.07;3.47;;;12.10;99.90;;;;;;5097581;28;20063;-82
2022/11/25 11:54:25;;;;;;;;;;;12.10;99.90;;;;;;5089985;28;20047;-84
2022/11/25 11:56:56;;;;;;;12.98;3.63;;;12.20;99.90;;;;;;5078038;28;19928;-85
2022/11/25 11:59:58;;;;;;;12.80;3.92;;;12.10;99.90;;;;;;5084031;28;20482;-84
2022/11/25 12:02:39;;;;;;;19.60;4.00;;;12.20;99.90;;;;;;5006550;28;20503;-83
2022/11/25 12:05:14;;;;;;;12.40;3.28;;;12.20;99.90;;;;;;5028678;28;20315;-84
2022/11/25 12:07:47;;;;;;;12.57;3.53;;;12.10;99.90;;;;;;5064128;28;20189;-83
2022/11/25 12:10:22;;;;;;;14.50;3.53;;;12.10;99.90;;;;;;5092383;28;20105;-83
2022/11/25 12:12:52;;;;;;;12.60;3.45;;;12.20;99.90;;;;;;5098055;28;20502;-84
2022/11/25 12:15:22;;;;;;;14.98;3.47;;;12.20;99.90;;;;;;5097597;28;20173;-83
2022/11/25 12:17:53;;;;;;;12.90;3.40;;;12.30;99.90;;;;;;5094297;28;20028;-80
2022/11/25 12:20:29;;;;;;;19.05;3.47;;;12.30;99.90;;;;;;5097974;28;20050;-81
2022/11/25 12:22:59;;;;;;;14.30;3.47;;;12.20;99.90;;;;;;5084015;28;20048;-80
2022/11/25 12:25:31;;;;;;;11.68;3.08;;;12.30;99.90;;;;;;5094018;28;20071;-85
2022/11/25 12:28:03;;;;;;;30.17;3.58;;;12.30;99.90;;;;;;5090536;28;20101;-83
2022/11/25 12:30:34;;;;;;;14.98;3.25;;;12.30;99.90;;;;;;5090286;28;20040;-84
2022/11/25 12:35:39;;;;;;;18.05;3.65;;;12.30;99.90;;;;;;5006271;28;20107;-87
2022/11/25 12:38:18;;;;;;;15.50;3.47;;;12.30;99.90;;;;;;5033943;28;20077;-83
2022/11/25 12:40:48;;;;;;;18.00;3.67;;;12.30;99.90;;;;;;5030815;28;20068;-82
2022/11/25 12:43:28;;;;;;;15.75;3.20;;;12.30;99.90;;;;;;5014368;28;20073;-82
2022/11/25 12:46:04;;;;;;;13.50;3.17;;;12.30;99.90;;;;;;5028698;28;20137;-87
2022/11/25 12:48:31;;;;;;;14.13;3.33;;;12.40;99.90;;;;;;5027313;28;20560;-83
2022/11/25 12:51:03;;;;;;;13.82;3.10;;;12.30;99.90;;;;;;5029806;28;20045;-83
2022/11/25 12:53:35;;;;;;;18.10;3.80;;;12.30;99.90;;;;;;5029747;28;20059;-83
2022/11/25 12:58:52;;;;;;;14.50;3.58;;;12.40;99.90;;;;;;5048039;28;20163;-78
2022/11/25 13:01:46;;;;;;;14.18;3.72;;;12.40;99.90;;;;;;5049878;28;20123;-78
2022/11/25 13:04:52;;;;;;;17.48;3.83;;;12.40;99.90;;;;;;5049559;28;20389;-78
2022/11/25 13:07:25;;;;;;;16.55;4.15;;;12.40;99.90;;;;;;5052437;28;20056;-78
2022/11/25 13:10:21;;;;;;;17.40;4.70;;;12.50;99.90;;;;;;5049747;28;20045;-78
2022/11/25 13:12:57;;;;;;;12.50;3.80;;;12.50;99.90;;;;;;5040489;28;20140;-78